sensor_id;sensor_type;location;lat;lon;timestamp;temperature;humidity
4530;DHT22;2277;51.626;7.516;2023-05-13T00:00:48;16.90;99.90
4530;DHT22;2277;51.626;7.516;2023-05-13T00:03:13;16.90;99.90
4530;DHT22;2277;51.626;7.516;2023-05-13T00:05:39;16.90;99.90
4530;DHT22;2277;51.626;7.516;2023-05-13T00:08:05;16.80;99.90
4530;DHT22;2277;51.626;7.516;2023-05-13T00:10:34;16.80;99.90
4530;DHT22;2277;51.626;7.516;2023-05-13T00:13:00;16.70;99.90
4530;DHT22;2277;51.626;7.516;2023-05-13T00:15:26;16.60;99.90
4530;DHT22;2277;51.626;7.516;2023-05-13T00:17:52;16.60;99.90
4530;DHT22;2277;51.626;7.516;2023-05-13T00:20:18;16.50;99.90
4530;DHT22;2277;51.626;7.516;2023-05-13T00:22:44;16.50;99.90
4530;DHT22;2277;51.626;7.516;2023-05-13T00:25:10;16.50;99.90
4530;DHT22;2277;51.626;7.516;2023-05-13T00:27:35;16.40;99.90
4530;DHT22;2277;51.626;7.516;2023-05-13T00:30:01;16.40;99.90
4530;DHT22;2277;51.626;7.516;2023-05-13T00:32:27;16.30;99.90
4530;DHT22;2277;51.626;7.516;2023-05-13T00:34:53;16.30;99.90
4530;DHT22;2277;51.626;7.516;2023-05-13T00:37:18;16.30;99.90
4530;DHT22;2277;51.626;7.516;2023-05-13T00:39:44;16.20;99.90
4530;DHT22;2277;51.626;7.516;2023-05-13T00:42:09;16.20;99.90
4530;DHT22;2277;51.626;7.516;2023-05-13T00:44:37;16.10;99.90
4530;DHT22;2277;51.626;7.516;2023-05-13T00:47:06;16.10;99.90
4530;DHT22;2277;51.626;7.516;2023-05-13T00:49:32;16.00;99.90
4530;DHT22;2277;51.626;7.516;2023-05-13T00:51:58;16.00;99.90
4530;DHT22;2277;51.626;7.516;2023-05-13T00:54:24;16.00;99.90
4530;DHT22;2277;51.626;7.516;2023-05-13T00:56:50;15.90;99.90
4530;DHT22;2277;51.626;7.516;2023-05-13T00:59:30;15.90;99.90
4530;DHT22;2277;51.626;7.516;2023-05-13T01:02:26;15.80;99.90
4530;DHT22;2277;51.626;7.516;2023-05-13T01:08:01;15.80;99.90
4530;DHT22;2277;51.626;7.516;2023-05-13T01:10:48;15.70;99.90
4530;DHT22;2277;51.626;7.516;2023-05-13T01:13:19;15.60;99.90
4530;DHT22;2277;51.626;7.516;2023-05-13T01:16:00;15.60;99.90
4530;DHT22;2277;51.626;7.516;2023-05-13T01:18:32;15.50;99.90
4530;DHT22;2277;51.626;7.516;2023-05-13T01:21:00;15.50;99.90
4530;DHT22;2277;51.626;7.516;2023-05-13T01:23:27;15.40;99.90
4530;DHT22;2277;51.626;7.516;2023-05-13T01:25:53;15.40;99.90
4530;DHT22;2277;51.626;7.516;2023-05-13T01:28:18;15.40;99.90
4530;DHT22;2277;51.626;7.516;2023-05-13T01:30:45;15.30;99.90
4530;DHT22;2277;51.626;7.516;2023-05-13T01:33:11;15.30;99.90
4530;DHT22;2277;51.626;7.516;2023-05-13T01:35:37;15.20;99.90
4530;DHT22;2277;51.626;7.516;2023-05-13T01:38:04;15.20;99.90
4530;DHT22;2277;51.626;7.516;2023-05-13T01:40:30;15.10;99.90
4530;DHT22;2277;51.626;7.516;2023-05-13T01:42:56;15.10;99.90
4530;DHT22;2277;51.626;7.516;2023-05-13T01:45:22;15.10;99.90
4530;DHT22;2277;51.626;7.516;2023-05-13T01:47:48;15.00;99.90
4530;DHT22;2277;51.626;7.516;2023-05-13T01:50:13;15.00;99.90
4530;DHT22;2277;51.626;7.516;2023-05-13T01:52:39;15.00;99.90
4530;DHT22;2277;51.626;7.516;2023-05-13T01:55:05;15.00;99.90
4530;DHT22;2277;51.626;7.516;2023-05-13T01:57:30;14.90;99.90
4530;DHT22;2277;51.626;7.516;2023-05-13T01:59:56;14.90;99.90
4530;DHT22;2277;51.626;7.516;2023-05-13T02:02:21;14.90;99.90
4530;DHT22;2277;51.626;7.516;2023-05-13T02:04:47;14.80;99.90
4530;DHT22;2277;51.626;7.516;2023-05-13T02:07:13;14.80;99.90
4530;DHT22;2277;51.626;7.516;2023-05-13T02:09:38;14.80;99.90
4530;DHT22;2277;51.626;7.516;2023-05-13T02:12:04;14.80;99.90
4530;DHT22;2277;51.626;7.516;2023-05-13T02:14:30;14.70;99.90
4530;DHT22;2277;51.626;7.516;2023-05-13T02:16:55;14.70;99.90
4530;DHT22;2277;51.626;7.516;2023-05-13T02:19:21;14.70;99.90
4530;DHT22;2277;51.626;7.516;2023-05-13T02:21:47;14.70;99.90
4530;DHT22;2277;51.626;7.516;2023-05-13T02:24:12;14.60;99.90
4530;DHT22;2277;51.626;7.516;2023-05-13T02:26:38;14.60;99.90
4530;DHT22;2277;51.626;7.516;2023-05-13T02:29:06;14.60;99.90
4530;DHT22;2277;51.626;7.516;2023-05-13T02:31:31;14.50;99.90
4530;DHT22;2277;51.626;7.516;2023-05-13T02:33:57;14.50;99.90
4530;DHT22;2277;51.626;7.516;2023-05-13T02:36:23;14.50;99.90
4530;DHT22;2277;51.626;7.516;2023-05-13T02:38:48;14.40;99.90
4530;DHT22;2277;51.626;7.516;2023-05-13T02:41:14;14.40;99.90
4530;DHT22;2277;51.626;7.516;2023-05-13T02:43:39;14.40;99.90
4530;DHT22;2277;51.626;7.516;2023-05-13T02:46:05;14.40;99.90
4530;DHT22;2277;51.626;7.516;2023-05-13T02:48:31;14.30;99.90
4530;DHT22;2277;51.626;7.516;2023-05-13T02:50:56;14.20;99.90
4530;DHT22;2277;51.626;7.516;2023-05-13T02:53:22;14.30;99.90
4530;DHT22;2277;51.626;7.516;2023-05-13T02:55:48;14.30;99.90
4530;DHT22;2277;51.626;7.516;2023-05-13T02:58:14;14.20;99.90
4530;DHT22;2277;51.626;7.516;2023-05-13T03:00:39;14.20;99.90
4530;DHT22;2277;51.626;7.516;2023-05-13T03:03:05;14.20;99.90
4530;DHT22;2277;51.626;7.516;2023-05-13T03:05:30;14.10;99.90
4530;DHT22;2277;51.626;7.516;2023-05-13T03:07:56;14.10;99.90
4530;DHT22;2277;51.626;7.516;2023-05-13T03:10:22;14.10;99.90
4530;DHT22;2277;51.626;7.516;2023-05-13T03:12:48;14.00;99.90
4530;DHT22;2277;51.626;7.516;2023-05-13T03:15:14;14.00;99.90
4530;DHT22;2277;51.626;7.516;2023-05-13T03:17:40;14.00;99.90
4530;DHT22;2277;51.626;7.516;2023-05-13T03:20:06;14.00;99.90
4530;DHT22;2277;51.626;7.516;2023-05-13T03:22:32;14.00;99.90
4530;DHT22;2277;51.626;7.516;2023-05-13T03:24:58;14.00;99.90
4530;DHT22;2277;51.626;7.516;2023-05-13T03:27:23;13.90;99.90
4530;DHT22;2277;51.626;7.516;2023-05-13T03:29:49;13.90;99.90
4530;DHT22;2277;51.626;7.516;2023-05-13T03:32:15;13.90;99.90
4530;DHT22;2277;51.626;7.516;2023-05-13T03:34:40;13.90;99.90
4530;DHT22;2277;51.626;7.516;2023-05-13T03:37:06;13.90;99.90
4530;DHT22;2277;51.626;7.516;2023-05-13T03:39:33;13.90;99.90
4530;DHT22;2277;51.626;7.516;2023-05-13T03:41:58;13.80;99.90
4530;DHT22;2277;51.626;7.516;2023-05-13T03:44:24;13.80;99.90
4530;DHT22;2277;51.626;7.516;2023-05-13T03:46:50;13.80;99.90
4530;DHT22;2277;51.626;7.516;2023-05-13T03:49:15;13.70;99.90
4530;DHT22;2277;51.626;7.516;2023-05-13T03:51:42;13.70;99.90
4530;DHT22;2277;51.626;7.516;2023-05-13T03:54:07;13.70;99.90
4530;DHT22;2277;51.626;7.516;2023-05-13T03:56:33;13.70;99.90
4530;DHT22;2277;51.626;7.516;2023-05-13T03:58:58;13.60;99.90
4530;DHT22;2277;51.626;7.516;2023-05-13T04:01:24;13.60;99.90
4530;DHT22;2277;51.626;7.516;2023-05-13T04:03:50;13.60;99.90
4530;DHT22;2277;51.626;7.516;2023-05-13T04:06:15;13.50;99.90
4530;DHT22;2277;51.626;7.516;2023-05-13T04:08:41;13.50;99.90
4530;DHT22;2277;51.626;7.516;2023-05-13T04:11:07;13.50;99.90
4530;DHT22;2277;51.626;7.516;2023-05-13T04:13:34;13.50;99.90
4530;DHT22;2277;51.626;7.516;2023-05-13T04:16:00;13.50;99.90
4530;DHT22;2277;51.626;7.516;2023-05-13T04:18:27;13.50;99.90
4530;DHT22;2277;51.626;7.516;2023-05-13T04:20:53;13.50;99.90
4530;DHT22;2277;51.626;7.516;2023-05-13T04:23:19;13.50;99.90
4530;DHT22;2277;51.626;7.516;2023-05-13T04:25:49;13.40;99.90
4530;DHT22;2277;51.626;7.516;2023-05-13T04:28:15;13.30;99.90
4530;DHT22;2277;51.626;7.516;2023-05-13T04:30:42;13.30;99.90
4530;DHT22;2277;51.626;7.516;2023-05-13T04:33:07;13.30;99.90
4530;DHT22;2277;51.626;7.516;2023-05-13T04:35:33;13.30;99.90
4530;DHT22;2277;51.626;7.516;2023-05-13T04:37:59;13.30;99.90
4530;DHT22;2277;51.626;7.516;2023-05-13T04:40:24;13.40;99.90
4530;DHT22;2277;51.626;7.516;2023-05-13T04:42:50;13.50;99.90
4530;DHT22;2277;51.626;7.516;2023-05-13T04:45:19;13.50;99.90
4530;DHT22;2277;51.626;7.516;2023-05-13T04:47:45;13.50;99.90
4530;DHT22;2277;51.626;7.516;2023-05-13T04:50:10;13.50;99.90
4530;DHT22;2277;51.626;7.516;2023-05-13T04:52:36;13.50;99.90
4530;DHT22;2277;51.626;7.516;2023-05-13T04:55:02;13.60;99.90
4530;DHT22;2277;51.626;7.516;2023-05-13T04:57:27;13.60;99.90
4530;DHT22;2277;51.626;7.516;2023-05-13T04:59:53;13.60;99.90
4530;DHT22;2277;51.626;7.516;2023-05-13T05:02:19;13.60;99.90
4530;DHT22;2277;51.626;7.516;2023-05-13T05:04:44;13.60;99.90
4530;DHT22;2277;51.626;7.516;2023-05-13T05:07:10;13.60;99.90
4530;DHT22;2277;51.626;7.516;2023-05-13T05:09:36;13.60;99.90
4530;DHT22;2277;51.626;7.516;2023-05-13T05:12:01;13.60;99.90
4530;DHT22;2277;51.626;7.516;2023-05-13T05:14:27;13.60;99.90
4530;DHT22;2277;51.626;7.516;2023-05-13T05:16:52;13.70;99.90
4530;DHT22;2277;51.626;7.516;2023-05-13T05:19:18;13.70;99.90
4530;DHT22;2277;51.626;7.516;2023-05-13T05:21:49;13.70;99.90
4530;DHT22;2277;51.626;7.516;2023-05-13T05:24:15;13.70;99.90
4530;DHT22;2277;51.626;7.516;2023-05-13T05:26:40;13.80;99.90
4530;DHT22;2277;51.626;7.516;2023-05-13T05:29:06;13.90;99.90
4530;DHT22;2277;51.626;7.516;2023-05-13T05:31:31;13.90;99.90
4530;DHT22;2277;51.626;7.516;2023-05-13T05:33:57;14.00;99.90
4530;DHT22;2277;51.626;7.516;2023-05-13T05:36:23;14.00;99.90
4530;DHT22;2277;51.626;7.516;2023-05-13T05:38:49;14.00;99.90
4530;DHT22;2277;51.626;7.516;2023-05-13T05:41:15;14.00;99.90
4530;DHT22;2277;51.626;7.516;2023-05-13T05:43:40;14.00;99.90
4530;DHT22;2277;51.626;7.516;2023-05-13T05:46:06;14.00;99.90
4530;DHT22;2277;51.626;7.516;2023-05-13T05:48:32;14.00;99.90
4530;DHT22;2277;51.626;7.516;2023-05-13T05:50:57;14.00;99.90
4530;DHT22;2277;51.626;7.516;2023-05-13T05:53:23;14.00;99.90
4530;DHT22;2277;51.626;7.516;2023-05-13T05:55:48;14.10;99.90
4530;DHT22;2277;51.626;7.516;2023-05-13T05:58:15;14.20;99.90
4530;DHT22;2277;51.626;7.516;2023-05-13T06:00:41;14.10;99.90
4530;DHT22;2277;51.626;7.516;2023-05-13T06:03:06;14.20;99.90
4530;DHT22;2277;51.626;7.516;2023-05-13T06:05:32;14.30;99.90
4530;DHT22;2277;51.626;7.516;2023-05-13T06:07:58;14.30;99.90
4530;DHT22;2277;51.626;7.516;2023-05-13T06:10:23;14.40;99.90
4530;DHT22;2277;51.626;7.516;2023-05-13T06:12:49;14.50;99.90
4530;DHT22;2277;51.626;7.516;2023-05-13T06:15:15;14.50;99.90
4530;DHT22;2277;51.626;7.516;2023-05-13T06:17:41;14.60;99.90
4530;DHT22;2277;51.626;7.516;2023-05-13T06:20:07;14.60;99.90
4530;DHT22;2277;51.626;7.516;2023-05-13T06:22:33;14.70;99.90
4530;DHT22;2277;51.626;7.516;2023-05-13T06:24:58;14.80;99.90
4530;DHT22;2277;51.626;7.516;2023-05-13T06:27:24;14.90;99.90
4530;DHT22;2277;51.626;7.516;2023-05-13T06:29:50;14.90;99.90
4530;DHT22;2277;51.626;7.516;2023-05-13T06:32:16;15.00;99.90
4530;DHT22;2277;51.626;7.516;2023-05-13T06:34:42;15.10;99.90
4530;DHT22;2277;51.626;7.516;2023-05-13T06:37:11;15.20;99.90
4530;DHT22;2277;51.626;7.516;2023-05-13T06:39:38;15.30;99.90
4530;DHT22;2277;51.626;7.516;2023-05-13T06:42:03;15.30;99.90
4530;DHT22;2277;51.626;7.516;2023-05-13T06:44:29;15.40;99.90
4530;DHT22;2277;51.626;7.516;2023-05-13T06:46:55;15.40;99.90
4530;DHT22;2277;51.626;7.516;2023-05-13T06:49:21;15.60;99.90
4530;DHT22;2277;51.626;7.516;2023-05-13T06:51:48;15.70;99.90
4530;DHT22;2277;51.626;7.516;2023-05-13T06:54:14;15.90;99.90
4530;DHT22;2277;51.626;7.516;2023-05-13T06:56:40;16.10;99.90
4530;DHT22;2277;51.626;7.516;2023-05-13T06:59:05;16.10;99.90
4530;DHT22;2277;51.626;7.516;2023-05-13T07:01:31;16.30;99.90
4530;DHT22;2277;51.626;7.516;2023-05-13T07:03:56;16.40;99.90
4530;DHT22;2277;51.626;7.516;2023-05-13T07:06:22;16.60;99.90
4530;DHT22;2277;51.626;7.516;2023-05-13T07:08:48;16.90;99.90
4530;DHT22;2277;51.626;7.516;2023-05-13T07:11:13;17.00;99.90
4530;DHT22;2277;51.626;7.516;2023-05-13T07:13:39;17.20;99.90
4530;DHT22;2277;51.626;7.516;2023-05-13T07:16:05;17.40;99.90
4530;DHT22;2277;51.626;7.516;2023-05-13T07:18:30;17.50;99.90
4530;DHT22;2277;51.626;7.516;2023-05-13T07:20:56;17.70;99.90
4530;DHT22;2277;51.626;7.516;2023-05-13T07:23:22;17.70;99.90
4530;DHT22;2277;51.626;7.516;2023-05-13T07:25:48;17.90;99.90
4530;DHT22;2277;51.626;7.516;2023-05-13T07:28:18;18.10;99.90
4530;DHT22;2277;51.626;7.516;2023-05-13T07:30:45;18.20;99.90
4530;DHT22;2277;51.626;7.516;2023-05-13T07:33:11;18.30;99.90
4530;DHT22;2277;51.626;7.516;2023-05-13T07:35:36;18.50;99.90
4530;DHT22;2277;51.626;7.516;2023-05-13T07:38:02;18.70;99.90
4530;DHT22;2277;51.626;7.516;2023-05-13T07:40:28;18.90;99.90
4530;DHT22;2277;51.626;7.516;2023-05-13T07:42:53;19.10;99.90
4530;DHT22;2277;51.626;7.516;2023-05-13T07:45:19;19.30;99.90
4530;DHT22;2277;51.626;7.516;2023-05-13T07:47:45;19.50;99.90
4530;DHT22;2277;51.626;7.516;2023-05-13T07:50:10;19.60;99.90
4530;DHT22;2277;51.626;7.516;2023-05-13T07:52:36;19.80;99.90
4530;DHT22;2277;51.626;7.516;2023-05-13T07:55:02;19.90;99.90
4530;DHT22;2277;51.626;7.516;2023-05-13T07:57:28;20.10;99.90
4530;DHT22;2277;51.626;7.516;2023-05-13T07:59:54;20.30;99.90
4530;DHT22;2277;51.626;7.516;2023-05-13T08:02:19;20.40;99.90
4530;DHT22;2277;51.626;7.516;2023-05-13T08:04:45;20.50;99.90
4530;DHT22;2277;51.626;7.516;2023-05-13T08:07:11;20.80;99.90
4530;DHT22;2277;51.626;7.516;2023-05-13T08:09:37;20.90;99.90
4530;DHT22;2277;51.626;7.516;2023-05-13T08:12:02;21.00;99.90
4530;DHT22;2277;51.626;7.516;2023-05-13T08:14:28;21.10;99.90
4530;DHT22;2277;51.626;7.516;2023-05-13T08:16:54;21.40;99.90
4530;DHT22;2277;51.626;7.516;2023-05-13T08:19:20;21.70;99.90
4530;DHT22;2277;51.626;7.516;2023-05-13T08:21:45;21.80;99.90
4530;DHT22;2277;51.626;7.516;2023-05-13T08:24:11;21.90;99.90
4530;DHT22;2277;51.626;7.516;2023-05-13T08:26:37;22.00;99.90
4530;DHT22;2277;51.626;7.516;2023-05-13T08:29:03;22.10;99.90
4530;DHT22;2277;51.626;7.516;2023-05-13T08:31:28;22.20;99.90
4530;DHT22;2277;51.626;7.516;2023-05-13T08:33:55;22.40;99.90
4530;DHT22;2277;51.626;7.516;2023-05-13T08:36:20;22.60;99.90
4530;DHT22;2277;51.626;7.516;2023-05-13T08:38:47;22.60;99.90
4530;DHT22;2277;51.626;7.516;2023-05-13T08:41:14;22.80;99.90
4530;DHT22;2277;51.626;7.516;2023-05-13T08:43:42;23.00;99.90
4530;DHT22;2277;51.626;7.516;2023-05-13T08:46:09;23.20;99.90
4530;DHT22;2277;51.626;7.516;2023-05-13T08:48:38;23.30;99.90
4530;DHT22;2277;51.626;7.516;2023-05-13T08:51:05;23.20;99.90
4530;DHT22;2277;51.626;7.516;2023-05-13T08:53:33;23.00;99.90
4530;DHT22;2277;51.626;7.516;2023-05-13T08:55:59;23.20;99.90
4530;DHT22;2277;51.626;7.516;2023-05-13T08:58:25;23.00;99.90
4530;DHT22;2277;51.626;7.516;2023-05-13T09:00:52;23.00;99.90
4530;DHT22;2277;51.626;7.516;2023-05-13T09:03:19;23.10;99.90
4530;DHT22;2277;51.626;7.516;2023-05-13T09:05:46;23.40;99.90
4530;DHT22;2277;51.626;7.516;2023-05-13T09:08:12;23.40;99.90
4530;DHT22;2277;51.626;7.516;2023-05-13T09:10:37;23.70;99.90
4530;DHT22;2277;51.626;7.516;2023-05-13T09:13:03;23.90;99.80
4530;DHT22;2277;51.626;7.516;2023-05-13T09:15:29;23.90;99.90
4530;DHT22;2277;51.626;7.516;2023-05-13T09:18:02;24.10;99.90
4530;DHT22;2277;51.626;7.516;2023-05-13T09:20:29;24.20;98.80
4530;DHT22;2277;51.626;7.516;2023-05-13T09:22:56;24.50;99.40
4530;DHT22;2277;51.626;7.516;2023-05-13T09:25:22;24.60;99.50
4530;DHT22;2277;51.626;7.516;2023-05-13T09:27:52;24.70;97.00
4530;DHT22;2277;51.626;7.516;2023-05-13T09:30:21;25.00;97.20
4530;DHT22;2277;51.626;7.516;2023-05-13T09:35:30;25.30;96.60
4530;DHT22;2277;51.626;7.516;2023-05-13T09:37:57;25.30;92.60
4530;DHT22;2277;51.626;7.516;2023-05-13T09:40:22;25.50;91.90
4530;DHT22;2277;51.626;7.516;2023-05-13T09:42:48;25.70;91.50
4530;DHT22;2277;51.626;7.516;2023-05-13T09:45:15;25.80;90.60
4530;DHT22;2277;51.626;7.516;2023-05-13T09:47:42;25.90;91.20
4530;DHT22;2277;51.626;7.516;2023-05-13T09:50:10;26.00;91.00
4530;DHT22;2277;51.626;7.516;2023-05-13T09:52:37;26.10;86.90
4530;DHT22;2277;51.626;7.516;2023-05-13T09:55:05;26.00;88.20
4530;DHT22;2277;51.626;7.516;2023-05-13T09:57:33;26.00;86.20
4530;DHT22;2277;51.626;7.516;2023-05-13T10:00:00;26.20;90.40
4530;DHT22;2277;51.626;7.516;2023-05-13T10:02:26;26.40;85.40
4530;DHT22;2277;51.626;7.516;2023-05-13T10:04:55;26.40;82.00
4530;DHT22;2277;51.626;7.516;2023-05-13T10:07:22;26.50;83.80
4530;DHT22;2277;51.626;7.516;2023-05-13T10:09:56;26.70;85.40
4530;DHT22;2277;51.626;7.516;2023-05-13T10:12:24;26.90;89.60
4530;DHT22;2277;51.626;7.516;2023-05-13T10:14:51;27.00;84.60
4530;DHT22;2277;51.626;7.516;2023-05-13T10:17:22;27.10;82.80
4530;DHT22;2277;51.626;7.516;2023-05-13T10:19:49;27.10;83.20
4530;DHT22;2277;51.626;7.516;2023-05-13T10:22:18;27.30;84.00
4530;DHT22;2277;51.626;7.516;2023-05-13T10:24:45;27.40;80.30
4530;DHT22;2277;51.626;7.516;2023-05-13T10:27:12;27.50;80.20
4530;DHT22;2277;51.626;7.516;2023-05-13T10:29:38;27.60;80.60
4530;DHT22;2277;51.626;7.516;2023-05-13T10:32:07;27.30;75.30
4530;DHT22;2277;51.626;7.516;2023-05-13T10:34:33;27.30;80.20
4530;DHT22;2277;51.626;7.516;2023-05-13T10:42:51;27.90;84.50
4530;DHT22;2277;51.626;7.516;2023-05-13T10:45:18;28.20;77.80
4530;DHT22;2277;51.626;7.516;2023-05-13T10:47:49;28.40;74.10
4530;DHT22;2277;51.626;7.516;2023-05-13T10:50:23;28.50;71.70
4530;DHT22;2277;51.626;7.516;2023-05-13T10:52:49;28.50;69.50
4530;DHT22;2277;51.626;7.516;2023-05-13T10:55:17;28.50;69.20
4530;DHT22;2277;51.626;7.516;2023-05-13T10:58:10;28.10;68.30
4530;DHT22;2277;51.626;7.516;2023-05-13T11:00:41;28.20;71.30
4530;DHT22;2277;51.626;7.516;2023-05-13T11:03:25;28.40;70.70
4530;DHT22;2277;51.626;7.516;2023-05-13T11:08:46;28.70;65.90
4530;DHT22;2277;51.626;7.516;2023-05-13T11:14:21;29.10;67.50
4530;DHT22;2277;51.626;7.516;2023-05-13T11:24:34;29.10;66.00
4530;DHT22;2277;51.626;7.516;2023-05-13T11:27:12;29.40;67.00
4530;DHT22;2277;51.626;7.516;2023-05-13T11:29:50;29.00;61.50
4530;DHT22;2277;51.626;7.516;2023-05-13T11:37:48;29.50;61.70
4530;DHT22;2277;51.626;7.516;2023-05-13T11:40:25;29.70;62.10
4530;DHT22;2277;51.626;7.516;2023-05-13T11:42:51;29.90;60.40
4530;DHT22;2277;51.626;7.516;2023-05-13T11:45:18;30.00;58.90
4530;DHT22;2277;51.626;7.516;2023-05-13T11:47:44;29.90;60.80
4530;DHT22;2277;51.626;7.516;2023-05-13T11:52:44;30.10;59.30
4530;DHT22;2277;51.626;7.516;2023-05-13T11:55:10;30.10;58.00
4530;DHT22;2277;51.626;7.516;2023-05-13T11:57:35;30.30;61.50
4530;DHT22;2277;51.626;7.516;2023-05-13T12:00:05;30.40;63.30
4530;DHT22;2277;51.626;7.516;2023-05-13T12:02:36;30.60;59.80
4530;DHT22;2277;51.626;7.516;2023-05-13T12:05:07;30.60;58.90
4530;DHT22;2277;51.626;7.516;2023-05-13T12:07:33;30.70;56.50
4530;DHT22;2277;51.626;7.516;2023-05-13T12:10:00;30.50;57.80
4530;DHT22;2277;51.626;7.516;2023-05-13T12:12:28;30.60;58.70
4530;DHT22;2277;51.626;7.516;2023-05-13T12:15:05;30.70;57.90
4530;DHT22;2277;51.626;7.516;2023-05-13T12:17:31;30.70;55.40
4530;DHT22;2277;51.626;7.516;2023-05-13T12:20:14;30.70;57.20
4530;DHT22;2277;51.626;7.516;2023-05-13T12:25:47;31.00;59.10
4530;DHT22;2277;51.626;7.516;2023-05-13T12:28:20;30.70;54.80
4530;DHT22;2277;51.626;7.516;2023-05-13T12:31:00;30.70;55.30
4530;DHT22;2277;51.626;7.516;2023-05-13T12:33:27;30.40;55.10
4530;DHT22;2277;51.626;7.516;2023-05-13T12:41:22;31.10;55.90
4530;DHT22;2277;51.626;7.516;2023-05-13T12:43:47;31.30;56.20
4530;DHT22;2277;51.626;7.516;2023-05-13T12:46:13;31.40;54.50
4530;DHT22;2277;51.626;7.516;2023-05-13T12:48:39;31.50;54.30
4530;DHT22;2277;51.626;7.516;2023-05-13T12:51:04;31.50;53.00
4530;DHT22;2277;51.626;7.516;2023-05-13T12:53:30;31.40;50.30
4530;DHT22;2277;51.626;7.516;2023-05-13T12:55:55;31.20;48.70
4530;DHT22;2277;51.626;7.516;2023-05-13T12:58:21;31.20;50.40
4530;DHT22;2277;51.626;7.516;2023-05-13T13:00:47;31.10;50.90
4530;DHT22;2277;51.626;7.516;2023-05-13T13:03:12;30.80;50.90
4530;DHT22;2277;51.626;7.516;2023-05-13T13:05:38;30.60;49.50
4530;DHT22;2277;51.626;7.516;2023-05-13T13:08:04;30.40;53.80
4530;DHT22;2277;51.626;7.516;2023-05-13T13:10:29;30.30;53.70
4530;DHT22;2277;51.626;7.516;2023-05-13T13:12:55;30.40;53.20
4530;DHT22;2277;51.626;7.516;2023-05-13T13:15:21;30.50;55.20
4530;DHT22;2277;51.626;7.516;2023-05-13T13:17:47;30.60;52.20
4530;DHT22;2277;51.626;7.516;2023-05-13T13:20:12;30.70;51.50
4530;DHT22;2277;51.626;7.516;2023-05-13T13:22:38;30.80;51.40
4530;DHT22;2277;51.626;7.516;2023-05-13T13:25:04;30.80;46.90
4530;DHT22;2277;51.626;7.516;2023-05-13T13:27:31;30.90;48.10
4530;DHT22;2277;51.626;7.516;2023-05-13T13:29:57;30.80;48.90
4530;DHT22;2277;51.626;7.516;2023-05-13T13:32:23;30.70;46.90
4530;DHT22;2277;51.626;7.516;2023-05-13T13:34:48;30.70;46.40
4530;DHT22;2277;51.626;7.516;2023-05-13T13:37:14;30.60;45.10
4530;DHT22;2277;51.626;7.516;2023-05-13T13:39:40;30.40;47.30
4530;DHT22;2277;51.626;7.516;2023-05-13T13:42:05;30.20;46.10
4530;DHT22;2277;51.626;7.516;2023-05-13T13:44:31;29.80;47.40
4530;DHT22;2277;51.626;7.516;2023-05-13T13:46:57;29.70;48.40
4530;DHT22;2277;51.626;7.516;2023-05-13T13:49:24;29.50;48.10
4530;DHT22;2277;51.626;7.516;2023-05-13T13:51:53;28.80;48.70
4530;DHT22;2277;51.626;7.516;2023-05-13T13:54:19;27.90;49.60
4530;DHT22;2277;51.626;7.516;2023-05-13T13:56:44;27.80;50.60
4530;DHT22;2277;51.626;7.516;2023-05-13T13:59:10;27.70;49.90
4530;DHT22;2277;51.626;7.516;2023-05-13T14:01:35;26.90;47.10
4530;DHT22;2277;51.626;7.516;2023-05-13T14:04:10;26.70;47.20
4530;DHT22;2277;51.626;7.516;2023-05-13T14:06:37;26.50;46.40
4530;DHT22;2277;51.626;7.516;2023-05-13T14:09:02;26.40;46.30
4530;DHT22;2277;51.626;7.516;2023-05-13T14:11:28;26.10;45.50
4530;DHT22;2277;51.626;7.516;2023-05-13T14:13:54;25.90;47.70
4530;DHT22;2277;51.626;7.516;2023-05-13T14:16:19;26.10;48.70
4530;DHT22;2277;51.626;7.516;2023-05-13T14:18:45;26.20;48.10
4530;DHT22;2277;51.626;7.516;2023-05-13T14:21:10;26.20;48.30
4530;DHT22;2277;51.626;7.516;2023-05-13T14:23:36;26.20;48.80
4530;DHT22;2277;51.626;7.516;2023-05-13T14:26:02;26.20;49.80
4530;DHT22;2277;51.626;7.516;2023-05-13T14:28:28;26.20;49.10
4530;DHT22;2277;51.626;7.516;2023-05-13T14:30:54;26.20;49.20
4530;DHT22;2277;51.626;7.516;2023-05-13T14:33:19;26.20;51.10
4530;DHT22;2277;51.626;7.516;2023-05-13T14:35:45;25.90;47.90
4530;DHT22;2277;51.626;7.516;2023-05-13T14:38:10;25.90;51.80
4530;DHT22;2277;51.626;7.516;2023-05-13T14:40:37;26.00;52.00
4530;DHT22;2277;51.626;7.516;2023-05-13T14:43:02;26.10;52.20
4530;DHT22;2277;51.626;7.516;2023-05-13T14:45:28;26.10;51.20
4530;DHT22;2277;51.626;7.516;2023-05-13T14:47:54;26.10;51.90
4530;DHT22;2277;51.626;7.516;2023-05-13T14:50:20;26.20;51.80
4530;DHT22;2277;51.626;7.516;2023-05-13T14:52:45;26.20;54.90
4530;DHT22;2277;51.626;7.516;2023-05-13T14:55:11;26.30;54.50
4530;DHT22;2277;51.626;7.516;2023-05-13T14:57:37;26.20;53.50
4530;DHT22;2277;51.626;7.516;2023-05-13T15:00:03;26.10;54.30
4530;DHT22;2277;51.626;7.516;2023-05-13T15:02:29;26.00;53.60
4530;DHT22;2277;51.626;7.516;2023-05-13T15:04:54;26.00;54.60
4530;DHT22;2277;51.626;7.516;2023-05-13T15:07:20;26.00;57.10
4530;DHT22;2277;51.626;7.516;2023-05-13T15:09:46;26.10;55.80
4530;DHT22;2277;51.626;7.516;2023-05-13T15:12:11;26.10;55.60
4530;DHT22;2277;51.626;7.516;2023-05-13T15:14:37;26.30;57.80
4530;DHT22;2277;51.626;7.516;2023-05-13T15:17:03;26.50;58.20
4530;DHT22;2277;51.626;7.516;2023-05-13T15:19:30;26.60;58.10
4530;DHT22;2277;51.626;7.516;2023-05-13T15:21:56;26.80;56.80
4530;DHT22;2277;51.626;7.516;2023-05-13T15:24:21;26.80;55.00
4530;DHT22;2277;51.626;7.516;2023-05-13T15:26:48;26.70;54.60
4530;DHT22;2277;51.626;7.516;2023-05-13T15:29:14;26.50;54.80
4530;DHT22;2277;51.626;7.516;2023-05-13T15:31:41;26.10;54.90
4530;DHT22;2277;51.626;7.516;2023-05-13T15:34:06;26.00;55.50
4530;DHT22;2277;51.626;7.516;2023-05-13T15:36:33;26.10;55.70
4530;DHT22;2277;51.626;7.516;2023-05-13T15:38:59;26.00;56.10
4530;DHT22;2277;51.626;7.516;2023-05-13T15:41:25;25.80;56.10
4530;DHT22;2277;51.626;7.516;2023-05-13T15:43:50;25.50;56.80
4530;DHT22;2277;51.626;7.516;2023-05-13T15:46:16;25.40;57.20
4530;DHT22;2277;51.626;7.516;2023-05-13T15:48:41;25.60;56.90
4530;DHT22;2277;51.626;7.516;2023-05-13T15:51:07;25.50;57.40
4530;DHT22;2277;51.626;7.516;2023-05-13T15:53:33;25.50;58.20
4530;DHT22;2277;51.626;7.516;2023-05-13T15:55:58;25.70;58.50
4530;DHT22;2277;51.626;7.516;2023-05-13T15:58:24;25.90;57.80
4530;DHT22;2277;51.626;7.516;2023-05-13T16:00:49;25.90;58.70
4530;DHT22;2277;51.626;7.516;2023-05-13T16:03:15;25.90;55.90
4530;DHT22;2277;51.626;7.516;2023-05-13T16:05:41;25.80;56.50
4530;DHT22;2277;51.626;7.516;2023-05-13T16:08:07;25.80;56.00
4530;DHT22;2277;51.626;7.516;2023-05-13T16:10:32;25.90;59.80
4530;DHT22;2277;51.626;7.516;2023-05-13T16:13:00;25.90;60.50
4530;DHT22;2277;51.626;7.516;2023-05-13T16:15:26;25.90;58.70
4530;DHT22;2277;51.626;7.516;2023-05-13T16:17:52;26.00;58.00
4530;DHT22;2277;51.626;7.516;2023-05-13T16:20:18;26.10;57.50
4530;DHT22;2277;51.626;7.516;2023-05-13T16:22:44;26.00;57.30
4530;DHT22;2277;51.626;7.516;2023-05-13T16:25:10;26.10;57.20
4530;DHT22;2277;51.626;7.516;2023-05-13T16:27:37;26.10;57.60
4530;DHT22;2277;51.626;7.516;2023-05-13T16:30:04;26.00;60.30
4530;DHT22;2277;51.626;7.516;2023-05-13T16:32:31;26.00;59.10
4530;DHT22;2277;51.626;7.516;2023-05-13T16:34:57;26.00;58.00
4530;DHT22;2277;51.626;7.516;2023-05-13T16:37:23;25.80;59.90
4530;DHT22;2277;51.626;7.516;2023-05-13T16:39:49;25.90;62.20